sensor_id;sensor_type;location;lat;lon;timestamp;pressure;altitude;pressure_sealevel;temperature;humidity
10167;BME280;62970;53.130;8.244;2023-02-26T07:52:22;102398.97;;;-0.35;56.16
10167;BME280;62970;53.130;8.244;2023-02-26T08:10:28;102416.84;;;-1.07;58.62
10167;BME280;62970;53.130;8.244;2023-02-26T08:13:00;102420.44;;;-1.03;58.80
10167;BME280;62970;53.130;8.244;2023-02-26T08:15:30;102422.19;;;-1.02;59.24
10167;BME280;62970;53.130;8.244;2023-02-26T08:17:59;102426.66;;;-0.98;59.23
10167;BME280;62970;53.130;8.244;2023-02-26T08:22:59;102433.63;;;-0.95;59.15
10167;BME280;62970;53.130;8.244;2023-02-26T08:25:32;102420.91;;;-0.94;59.29
10167;BME280;62970;53.130;8.244;2023-02-26T08:28:02;102427.84;;;-0.91;59.53
10167;BME280;62970;53.130;8.244;2023-02-26T08:30:31;102435.75;;;-0.87;59.79
10167;BME280;62970;53.130;8.244;2023-02-26T08:33:04;102448.66;;;-0.85;59.47
10167;BME280;62970;53.130;8.244;2023-02-26T08:35:35;102447.19;;;-0.80;59.69
10167;BME280;62970;53.130;8.244;2023-02-26T08:38:06;102456.72;;;-0.78;59.65
10167;BME280;62970;53.130;8.244;2023-02-26T08:40:38;102453.41;;;-0.75;59.58
10167;BME280;62970;53.130;8.244;2023-02-26T08:43:10;102452.63;;;-0.74;60.02
10167;BME280;62970;53.130;8.244;2023-02-26T08:45:41;102457.81;;;-0.72;60.08
10167;BME280;62970;53.130;8.244;2023-02-26T08:48:10;102458.84;;;-0.69;59.85
10167;BME280;62970;53.130;8.244;2023-02-26T08:50:43;102463.22;;;-0.66;59.74
10167;BME280;62970;53.130;8.244;2023-02-26T08:53:18;102468.50;;;-0.63;59.46
10167;BME280;62970;53.130;8.244;2023-02-26T08:55:53;102475.47;;;-0.61;59.75
10167;BME280;62970;53.130;8.244;2023-02-26T08:58:25;102489.38;;;-0.56;59.78
10167;BME280;62970;53.130;8.244;2023-02-26T09:00:57;102487.84;;;-0.52;59.99
10167;BME280;62970;53.130;8.244;2023-02-26T09:03:27;102490.56;;;-0.49;59.86
10167;BME280;62970;53.130;8.244;2023-02-26T09:05:59;102493.34;;;-0.45;59.86
10167;BME280;62970;53.130;8.244;2023-02-26T09:08:29;102503.75;;;-0.42;59.92
10167;BME280;62970;53.130;8.244;2023-02-26T09:11:10;102508.25;;;-0.37;60.23
10167;BME280;62970;53.130;8.244;2023-02-26T09:13:40;102506.72;;;-0.34;60.31
10167;BME280;62970;53.130;8.244;2023-02-26T09:16:11;102506.88;;;-0.31;60.08
10167;BME280;62970;53.130;8.244;2023-02-26T09:18:43;102511.41;;;-0.25;60.10
10167;BME280;62970;53.130;8.244;2023-02-26T09:21:13;102515.00;;;-0.22;59.84
10167;BME280;62970;53.130;8.244;2023-02-26T09:23:43;102518.72;;;-0.15;60.03
10167;BME280;62970;53.130;8.244;2023-02-26T09:26:18;102516.31;;;-0.12;60.00
10167;BME280;62970;53.130;8.244;2023-02-26T09:28:50;102525.03;;;-0.08;59.58
10167;BME280;62970;53.130;8.244;2023-02-26T09:31:20;102516.59;;;-0.06;59.75
10167;BME280;62970;53.130;8.244;2023-02-26T09:33:52;102521.06;;;-0.02;59.32
10167;BME280;62970;53.130;8.244;2023-02-26T09:36:26;102535.13;;;0.06;59.23
10167;BME280;62970;53.130;8.244;2023-02-26T09:38:58;102530.16;;;0.09;58.92
10167;BME280;62970;53.130;8.244;2023-02-26T09:41:38;102525.16;;;0.12;58.80
10167;BME280;62970;53.130;8.244;2023-02-26T09:44:22;102537.31;;;0.16;56.33
10167;BME280;62970;53.130;8.244;2023-02-26T09:47:01;102531.59;;;0.22;58.17
10167;BME280;62970;53.130;8.244;2023-02-26T09:49:52;102542.06;;;0.27;58.42
10167;BME280;62970;53.130;8.244;2023-02-26T09:52:28;102544.84;;;0.31;58.13
10167;BME280;62970;53.130;8.244;2023-02-26T09:55:04;102549.25;;;0.34;55.79
10167;BME280;62970;53.130;8.244;2023-02-26T09:57:47;102562.28;;;0.38;57.29
10167;BME280;62970;53.130;8.244;2023-02-26T10:00:26;102564.25;;;0.44;57.61
10167;BME280;62970;53.130;8.244;2023-02-26T10:03:16;102565.34;;;0.49;58.10
10167;BME280;62970;53.130;8.244;2023-02-26T10:06:17;102570.78;;;0.55;56.73
10167;BME280;62970;53.130;8.244;2023-02-26T10:09:07;102577.88;;;0.61;56.48
10167;BME280;62970;53.130;8.244;2023-02-26T10:11:50;102577.94;;;0.62;56.39
10167;BME280;62970;53.130;8.244;2023-02-26T10:14:35;102572.13;;;0.66;56.47
10167;BME280;62970;53.130;8.244;2023-02-26T10:17:15;102576.53;;;0.69;56.62
10167;BME280;62970;53.130;8.244;2023-02-26T10:27:45;102598.44;;;0.99;56.50
10167;BME280;62970;53.130;8.244;2023-02-26T10:30:31;102596.22;;;1.07;54.62
10167;BME280;62970;53.130;8.244;2023-02-26T10:40:46;102618.31;;;1.42;55.41
10167;BME280;62970;53.130;8.244;2023-02-26T11:01:29;102625.16;;;2.23;56.43
10167;BME280;62970;53.130;8.244;2023-02-26T11:06:40;102633.59;;;2.41;56.76
10167;BME280;62970;53.130;8.244;2023-02-26T11:14:24;102621.84;;;2.48;55.57
10167;BME280;62970;53.130;8.244;2023-02-26T11:17:02;102621.06;;;2.51;55.47
10167;BME280;62970;53.130;8.244;2023-02-26T11:19:37;102617.78;;;2.55;55.66
10167;BME280;62970;53.130;8.244;2023-02-26T11:22:16;102615.34;;;2.58;55.80
10167;BME280;62970;53.130;8.244;2023-02-26T11:24:48;102615.34;;;2.58;55.43
10167;BME280;62970;53.130;8.244;2023-02-26T11:27:33;102623.00;;;2.56;56.03
10167;BME280;62970;53.130;8.244;2023-02-26T11:30:13;102619.59;;;2.57;55.24
10167;BME280;62970;53.130;8.244;2023-02-26T11:32:51;102618.69;;;2.55;55.22
10167;BME280;62970;53.130;8.244;2023-02-26T11:37:59;102608.78;;;2.66;55.55
10167;BME280;62970;53.130;8.244;2023-02-26T11:40:40;102612.53;;;2.74;54.68
10167;BME280;62970;53.130;8.244;2023-02-26T11:43:15;102625.56;;;2.78;55.16
10167;BME280;62970;53.130;8.244;2023-02-26T11:45:51;102615.28;;;2.78;54.92
10167;BME280;62970;53.130;8.244;2023-02-26T11:48:31;102609.28;;;2.79;55.05
10167;BME280;62970;53.130;8.244;2023-02-26T11:51:11;102618.91;;;2.84;55.16
10167;BME280;62970;53.130;8.244;2023-02-26T11:53:48;102612.09;;;2.86;55.44
10167;BME280;62970;53.130;8.244;2023-02-26T11:56:28;102607.25;;;2.93;55.32
10167;BME280;62970;53.130;8.244;2023-02-26T11:59:05;102611.75;;;2.99;55.38
10167;BME280;62970;53.130;8.244;2023-02-26T12:01:40;102602.44;;;3.02;55.60
10167;BME280;62970;53.130;8.244;2023-02-26T12:04:17;102599.88;;;3.02;55.26
10167;BME280;62970;53.130;8.244;2023-02-26T12:06:51;102604.13;;;3.02;55.35
10167;BME280;62970;53.130;8.244;2023-02-26T12:09:24;102603.88;;;2.94;54.53
10167;BME280;62970;53.130;8.244;2023-02-26T12:12:07;102593.13;;;2.84;54.72
10167;BME280;62970;53.130;8.244;2023-02-26T12:14:52;102603.91;;;2.73;54.04
10167;BME280;62970;53.130;8.244;2023-02-26T12:17:37;102598.53;;;2.67;55.30
10167;BME280;62970;53.130;8.244;2023-02-26T12:20:20;102595.97;;;2.67;55.40
10167;BME280;62970;53.130;8.244;2023-02-26T12:23:20;102601.22;;;2.70;54.94
10167;BME280;62970;53.130;8.244;2023-02-26T12:26:16;102591.97;;;2.75;52.70
10167;BME280;62970;53.130;8.244;2023-02-26T12:29:14;102593.91;;;2.81;54.98
10167;BME280;62970;53.130;8.244;2023-02-26T12:32:17;102600.81;;;2.82;55.10
10167;BME280;62970;53.130;8.244;2023-02-26T12:35:04;102594.78;;;2.81;55.07
10167;BME280;62970;53.130;8.244;2023-02-26T12:37:53;102597.34;;;2.81;54.84
10167;BME280;62970;53.130;8.244;2023-02-26T12:40:50;102598.34;;;2.85;54.84
10167;BME280;62970;53.130;8.244;2023-02-26T12:43:32;102603.81;;;2.93;54.79
10167;BME280;62970;53.130;8.244;2023-02-26T12:46:15;102591.13;;;2.99;54.34
10167;BME280;62970;53.130;8.244;2023-02-26T12:49:17;102599.91;;;3.04;54.86
10167;BME280;62970;53.130;8.244;2023-02-26T12:52:19;102593.06;;;3.04;51.03
10167;BME280;62970;53.130;8.244;2023-02-26T12:55:10;102588.91;;;3.08;54.30
10167;BME280;62970;53.130;8.244;2023-02-26T12:58:29;102591.63;;;3.12;54.55
10167;BME280;62970;53.130;8.244;2023-02-26T13:04:52;102607.97;;;3.37;54.50
10167;BME280;62970;53.130;8.244;2023-02-26T13:07:55;102596.16;;;3.43;54.34
10167;BME280;62970;53.130;8.244;2023-02-26T13:10:40;102607.50;;;3.49;53.80
10167;BME280;62970;53.130;8.244;2023-02-26T13:13:52;102606.63;;;3.48;53.88
10167;BME280;62970;53.130;8.244;2023-02-26T13:16:37;102598.13;;;3.51;53.94
10167;BME280;62970;53.130;8.244;2023-02-26T13:19:25;102594.94;;;3.58;53.97
10167;BME280;62970;53.130;8.244;2023-02-26T13:21:59;102586.56;;;3.65;53.59
10167;BME280;62970;53.130;8.244;2023-02-26T13:24:39;102596.16;;;3.69;53.37
10167;BME280;62970;53.130;8.244;2023-02-26T13:27:22;102595.50;;;3.74;53.86
10167;BME280;62970;53.130;8.244;2023-02-26T13:30:08;102592.19;;;3.78;53.51
10167;BME280;62970;53.130;8.244;2023-02-26T13:32:49;102598.31;;;3.82;53.67
10167;BME280;62970;53.130;8.244;2023-02-26T13:35:31;102598.38;;;3.84;53.53
10167;BME280;62970;53.130;8.244;2023-02-26T13:38:18;102605.13;;;3.80;53.33
10167;BME280;62970;53.130;8.244;2023-02-26T13:41:04;102597.25;;;3.75;53.93
10167;BME280;62970;53.130;8.244;2023-02-26T13:43:55;102600.56;;;3.71;52.93
10167;BME280;62970;53.130;8.244;2023-02-26T13:46:51;102595.50;;;3.74;53.21
10167;BME280;62970;53.130;8.244;2023-02-26T13:49:37;102586.34;;;3.84;53.83
10167;BME280;62970;53.130;8.244;2023-02-26T13:52:24;102589.38;;;3.98;53.44
10167;BME280;62970;53.130;8.244;2023-02-26T14:08:55;102588.41;;;4.21;53.24
10167;BME280;62970;53.130;8.244;2023-02-26T14:12:01;102590.38;;;4.30;53.60
10167;BME280;62970;53.130;8.244;2023-02-26T14:14:40;102591.31;;;4.32;52.53
10167;BME280;62970;53.130;8.244;2023-02-26T14:17:39;102589.56;;;4.31;53.19
10167;BME280;62970;53.130;8.244;2023-02-26T14:20:26;102584.25;;;4.26;53.04
10167;BME280;62970;53.130;8.244;2023-02-26T14:23:31;102587.66;;;4.25;51.98
10167;BME280;62970;53.130;8.244;2023-02-26T14:26:10;102587.81;;;4.30;52.98
10167;BME280;62970;53.130;8.244;2023-02-26T14:28:57;102587.13;;;4.35;52.88
10167;BME280;62970;53.130;8.244;2023-02-26T14:31:53;102583.88;;;4.42;53.54
10167;BME280;62970;53.130;8.244;2023-02-26T14:34:26;102587.47;;;4.48;52.71
10167;BME280;62970;53.130;8.244;2023-02-26T14:37:05;102585.88;;;4.51;52.73
10167;BME280;62970;53.130;8.244;2023-02-26T14:39:44;102591.91;;;4.52;52.27
10167;BME280;62970;53.130;8.244;2023-02-26T14:42:21;102586.69;;;4.50;52.84
10167;BME280;62970;53.130;8.244;2023-02-26T14:45:06;102587.63;;;4.52;52.70
10167;BME280;62970;53.130;8.244;2023-02-26T14:47:39;102584.06;;;4.49;52.11
10167;BME280;62970;53.130;8.244;2023-02-26T14:50:16;102591.59;;;4.41;51.86
10167;BME280;62970;53.130;8.244;2023-02-26T14:53:24;102587.75;;;4.28;52.20
10167;BME280;62970;53.130;8.244;2023-02-26T14:56:12;102593.50;;;4.20;52.23
10167;BME280;62970;53.130;8.244;2023-02-26T14:59:36;102607.88;;;4.12;52.95
10167;BME280;62970;53.130;8.244;2023-02-26T15:02:41;102603.31;;;4.03;52.98
10167;BME280;62970;53.130;8.244;2023-02-26T15:05:52;102605.53;;;3.92;53.44
10167;BME280;62970;53.130;8.244;2023-02-26T15:09:01;102612.06;;;3.81;51.68
10167;BME280;62970;53.130;8.244;2023-02-26T15:12:14;102604.06;;;3.73;53.76
10167;BME280;62970;53.130;8.244;2023-02-26T15:15:23;102618.41;;;3.65;53.67
10167;BME280;62970;53.130;8.244;2023-02-26T15:21:13;102613.59;;;3.51;53.06
10167;BME280;62970;53.130;8.244;2023-02-26T15:23:50;102609.94;;;3.44;52.88
10167;BME280;62970;53.130;8.244;2023-02-26T15:26:27;102609.72;;;3.38;53.24
10167;BME280;62970;53.130;8.244;2023-02-26T15:36:53;102622.56;;;3.12;53.64
10167;BME280;62970;53.130;8.244;2023-02-26T15:39:30;102615.66;;;3.11;53.74
10167;BME280;62970;53.130;8.244;2023-02-26T15:42:08;102616.31;;;3.06;51.97
10167;BME280;62970;53.130;8.244;2023-02-26T15:44:56;102615.44;;;3.05;53.83
10167;BME280;62970;53.130;8.244;2023-02-26T15:47:34;102616.19;;;3.03;53.78
10167;BME280;62970;53.130;8.244;2023-02-26T15:50:14;102616.91;;;2.99;53.68
10167;BME280;62970;53.130;8.244;2023-02-26T15:52:55;102617.63;;;2.95;53.25
10167;BME280;62970;53.130;8.244;2023-02-26T15:55:34;102614.78;;;2.89;53.59
10167;BME280;62970;53.130;8.244;2023-02-26T15:58:08;102627.56;;;2.86;53.27
10167;BME280;62970;53.130;8.244;2023-02-26T16:00:37;102626.44;;;2.79;53.52
10167;BME280;62970;53.130;8.244;2023-02-26T16:03:11;102626.28;;;2.74;53.66
10167;BME280;62970;53.130;8.244;2023-02-26T16:05:41;102628.63;;;2.68;53.06
10167;BME280;62970;53.130;8.244;2023-02-26T16:08:14;102631.09;;;2.65;53.77
10167;BME280;62970;53.130;8.244;2023-02-26T16:10:46;102638.69;;;2.62;53.49
10167;BME280;62970;53.130;8.244;2023-02-26T16:13:29;102645.31;;;2.56;53.78
10167;BME280;62970;53.130;8.244;2023-02-26T16:16:02;102644.31;;;2.52;53.59
10167;BME280;62970;53.130;8.244;2023-02-26T16:18:43;102634.72;;;2.48;53.37
10167;BME280;62970;53.130;8.244;2023-02-26T16:21:26;102649.09;;;2.43;53.07
10167;BME280;62970;53.130;8.244;2023-02-26T16:24:01;102653.31;;;2.41;53.31
10167;BME280;62970;53.130;8.244;2023-02-26T16:26:34;102657.41;;;2.36;53.50
10167;BME280;62970;53.130;8.244;2023-02-26T16:29:12;102654.59;;;2.30;53.85
10167;BME280;62970;53.130;8.244;2023-02-26T16:31:48;102657.78;;;2.24;53.81
10167;BME280;62970;53.130;8.244;2023-02-26T16:34:29;102660.97;;;2.18;54.03
10167;BME280;62970;53.130;8.244;2023-02-26T16:37:20;102663.34;;;2.14;54.09
10167;BME280;62970;53.130;8.244;2023-02-26T16:40:15;102664.84;;;2.09;54.09
10167;BME280;62970;53.130;8.244;2023-02-26T16:42:53;102665.50;;;2.03;54.36
10167;BME280;62970;53.130;8.244;2023-02-26T16:45:42;102669.56;;;1.98;54.28
10167;BME280;62970;53.130;8.244;2023-02-26T16:50:57;102684.69;;;1.91;54.81
10167;BME280;62970;53.130;8.244;2023-02-26T16:53:34;102681.03;;;1.85;54.77
10167;BME280;62970;53.130;8.244;2023-02-26T16:56:14;102687.81;;;1.83;54.92
10167;BME280;62970;53.130;8.244;2023-02-26T16:58:50;102676.38;;;1.77;55.20
10167;BME280;62970;53.130;8.244;2023-02-26T17:01:23;102680.66;;;1.76;55.03
10167;BME280;62970;53.130;8.244;2023-02-26T17:03:59;102681.28;;;1.71;55.34
10167;BME280;62970;53.130;8.244;2023-02-26T17:06:30;102690.63;;;1.69;55.22
10167;BME280;62970;53.130;8.244;2023-02-26T17:09:06;102689.72;;;1.68;55.11
10167;BME280;62970;53.130;8.244;2023-02-26T17:11:40;102698.34;;;1.69;55.62
10167;BME280;62970;53.130;8.244;2023-02-26T17:14:19;102694.88;;;1.68;55.42
10167;BME280;62970;53.130;8.244;2023-02-26T17:16:52;102698.25;;;1.67;55.40
10167;BME280;62970;53.130;8.244;2023-02-26T17:19:24;102700.84;;;1.67;55.77
10167;BME280;62970;53.130;8.244;2023-02-26T17:21:57;102703.53;;;1.70;55.75
10167;BME280;62970;53.130;8.244;2023-02-26T17:24:32;102701.84;;;1.71;55.36
10167;BME280;62970;53.130;8.244;2023-02-26T17:27:07;102709.75;;;1.75;55.44
10167;BME280;62970;53.130;8.244;2023-02-26T17:29:49;102712.47;;;1.78;55.86
10167;BME280;62970;53.130;8.244;2023-02-26T17:32:26;102718.63;;;1.82;55.32
10167;BME280;62970;53.130;8.244;2023-02-26T17:34:58;102722.81;;;1.80;55.50
10167;BME280;62970;53.130;8.244;2023-02-26T17:37:33;102721.88;;;1.78;55.25
10167;BME280;62970;53.130;8.244;2023-02-26T17:40:18;102723.50;;;1.76;55.14
10167;BME280;62970;53.130;8.244;2023-02-26T17:42:51;102720.94;;;1.76;55.41
10167;BME280;62970;53.130;8.244;2023-02-26T17:45:24;102727.84;;;1.77;55.54
10167;BME280;62970;53.130;8.244;2023-02-26T17:47:58;102727.09;;;1.79;55.28
10167;BME280;62970;53.130;8.244;2023-02-26T17:50:43;102731.28;;;1.77;55.39
10167;BME280;62970;53.130;8.244;2023-02-26T17:53:13;102732.97;;;1.77;55.29
10167;BME280;62970;53.130;8.244;2023-02-26T17:55:44;102730.22;;;1.72;55.21
10167;BME280;62970;53.130;8.244;2023-02-26T17:58:24;102732.44;;;1.65;55.54
10167;BME280;62970;53.130;8.244;2023-02-26T18:00:58;102728.72;;;1.58;55.30
10167;BME280;62970;53.130;8.244;2023-02-26T18:03:29;102738.59;;;1.49;55.41
10167;BME280;62970;53.130;8.244;2023-02-26T18:06:06;102745.97;;;1.41;55.53
10167;BME280;62970;53.130;8.244;2023-02-26T18:08:36;102746.59;;;1.36;55.24
10167;BME280;62970;53.130;8.244;2023-02-26T18:11:07;102752.31;;;1.30;55.54
10167;BME280;62970;53.130;8.244;2023-02-26T18:13:46;102753.66;;;1.22;55.75
10167;BME280;62970;53.130;8.244;2023-02-26T18:16:25;102764.63;;;1.18;55.69
10167;BME280;62970;53.130;8.244;2023-02-26T18:18:56;102763.59;;;1.14;55.94
10167;BME280;62970;53.130;8.244;2023-02-26T18:21:26;102766.91;;;1.12;56.18
10167;BME280;62970;53.130;8.244;2023-02-26T18:23:56;102766.16;;;1.14;55.83
10167;BME280;62970;53.130;8.244;2023-02-26T18:26:31;102770.56;;;1.17;55.79
10167;BME280;62970;53.130;8.244;2023-02-26T18:29:03;102769.00;;;1.20;56.19
10167;BME280;62970;53.130;8.244;2023-02-26T18:31:34;102772.69;;;1.26;56.05
10167;BME280;62970;53.130;8.244;2023-02-26T18:34:07;102782.38;;;1.31;56.26
10167;BME280;62970;53.130;8.244;2023-02-26T18:36:40;102779.06;;;1.34;56.36
10167;BME280;62970;53.130;8.244;2023-02-26T18:39:14;102781.63;;;1.34;55.97
10167;BME280;62970;53.130;8.244;2023-02-26T18:41:46;102781.56;;;1.32;55.81
10167;BME280;62970;53.130;8.244;2023-02-26T18:44:20;102779.59;;;1.27;55.67
10167;BME280;62970;53.130;8.244;2023-02-26T18:46:49;102779.38;;;1.22;55.96
10167;BME280;62970;53.130;8.244;2023-02-26T18:49:20;102781.66;;;1.16;55.95
10167;BME280;62970;53.130;8.244;2023-02-26T18:51:50;102780.56;;;1.11;56.08
10167;BME280;62970;53.130;8.244;2023-02-26T18:54:20;102772.50;;;1.03;56.33
10167;BME280;62970;53.130;8.244;2023-02-26T18:56:49;102779.78;;;0.94;56.20
10167;BME280;62970;53.130;8.244;2023-02-26T18:59:21;102773.31;;;0.84;55.98
10167;BME280;62970;53.130;8.244;2023-02-26T19:01:50;102773.03;;;0.78;56.22
10167;BME280;62970;53.130;8.244;2023-02-26T19:04:27;102776.09;;;0.71;56.32
10167;BME280;62970;53.130;8.244;2023-02-26T19:09:59;102778.88;;;0.58;56.35
10167;BME280;62970;53.130;8.244;2023-02-26T19:12:54;102787.91;;;0.50;56.54
10167;BME280;62970;53.130;8.244;2023-02-26T19:15:42;102783.19;;;0.41;56.75
10167;BME280;62970;53.130;8.244;2023-02-26T19:18:14;102782.06;;;0.36;56.81
10167;BME280;62970;53.130;8.244;2023-02-26T19:20:53;102780.09;;;0.31;56.63
10167;BME280;62970;53.130;8.244;2023-02-26T19:23:35;102777.94;;;0.22;56.83
10167;BME280;62970;53.130;8.244;2023-02-26T19:26:22;102779.31;;;0.15;56.81
10167;BME280;62970;53.130;8.244;2023-02-26T19:29:03;102778.19;;;0.10;57.24
10167;BME280;62970;53.130;8.244;2023-02-26T19:31:56;102779.41;;;0.01;57.22
10167;BME280;62970;53.130;8.244;2023-02-26T19:34:50;102782.63;;;-0.03;57.53
10167;BME280;62970;53.130;8.244;2023-02-26T19:37:21;102788.47;;;-0.06;57.70
10167;BME280;62970;53.130;8.244;2023-02-26T19:40:08;102785.59;;;-0.12;57.70
10167;BME280;62970;53.130;8.244;2023-02-26T19:42:52;102786.00;;;-0.21;57.82
10167;BME280;62970;53.130;8.244;2023-02-26T19:45:43;102789.13;;;-0.26;57.90
10167;BME280;62970;53.130;8.244;2023-02-26T19:48:18;102785.53;;;-0.30;57.70
10167;BME280;62970;53.130;8.244;2023-02-26T19:50:49;102795.38;;;-0.37;57.95
10167;BME280;62970;53.130;8.244;2023-02-26T19:53:30;102797.59;;;-0.44;58.21
10167;BME280;62970;53.130;8.244;2023-02-26T19:56:12;102808.22;;;-0.52;58.24
10167;BME280;62970;53.130;8.244;2023-02-26T19:58:52;102810.47;;;-0.58;58.16
10167;BME280;62970;53.130;8.244;2023-02-26T20:01:31;102811.66;;;-0.68;58.27
10167;BME280;62970;53.130;8.244;2023-02-26T20:04:07;102814.03;;;-0.71;58.45
10167;BME280;62970;53.130;8.244;2023-02-26T20:06:43;102819.63;;;-0.78;58.49
10167;BME280;62970;53.130;8.244;2023-02-26T20:09:14;102812.56;;;-0.82;58.88
10167;BME280;62970;53.130;8.244;2023-02-26T20:11:51;102820.88;;;-0.86;58.96
10167;BME280;62970;53.130;8.244;2023-02-26T20:14:22;102820.63;;;-0.91;59.25
10167;BME280;62970;53.130;8.244;2023-02-26T20:16:55;102830.63;;;-0.95;59.10
10167;BME280;62970;53.130;8.244;2023-02-26T20:19:29;102833.81;;;-0.99;59.28
10167;BME280;62970;53.130;8.244;2023-02-26T20:21:58;102838.59;;;-1.06;59.59
10167;BME280;62970;53.130;8.244;2023-02-26T20:24:30;102840.00;;;-1.11;59.34
10167;BME280;62970;53.130;8.244;2023-02-26T20:27:04;102847.44;;;-1.15;59.80
10167;BME280;62970;53.130;8.244;2023-02-26T20:29:35;102850.69;;;-1.18;59.79
10167;BME280;62970;53.130;8.244;2023-02-26T20:32:10;102847.69;;;-1.25;59.61
10167;BME280;62970;53.130;8.244;2023-02-26T20:35:04;102849.19;;;-1.29;59.91
10167;BME280;62970;53.130;8.244;2023-02-26T20:37:39;102852.38;;;-1.33;59.97
10167;BME280;62970;53.130;8.244;2023-02-26T20:40:13;102848.66;;;-1.38;59.95
10167;BME280;62970;53.130;8.244;2023-02-26T20:42:43;102862.25;;;-1.39;60.33
10167;BME280;62970;53.130;8.244;2023-02-26T20:45:13;102855.19;;;-1.43;60.37
10167;BME280;62970;53.130;8.244;2023-02-26T20:47:44;102864.47;;;-1.45;60.07
10167;BME280;62970;53.130;8.244;2023-02-26T20:50:24;102859.09;;;-1.50;60.37
10167;BME280;62970;53.130;8.244;2023-02-26T20:52:56;102863.03;;;-1.55;60.21
10167;BME280;62970;53.130;8.244;2023-02-26T20:55:26;102861.97;;;-1.58;60.20
10167;BME280;62970;53.130;8.244;2023-02-26T20:57:56;102866.03;;;-1.62;60.67
10167;BME280;62970;53.130;8.244;2023-02-26T21:00:27;102868.59;;;-1.62;60.67
10167;BME280;62970;53.130;8.244;2023-02-26T21:02:57;102870.09;;;-1.65;60.47
10167;BME280;62970;53.130;8.244;2023-02-26T21:05:30;102876.59;;;-1.71;60.77
10167;BME280;62970;53.130;8.244;2023-02-26T21:08:03;102867.06;;;-1.73;60.79
10167;BME280;62970;53.130;8.244;2023-02-26T21:10:36;102866.91;;;-1.76;60.74
10167;BME280;62970;53.130;8.244;2023-02-26T21:13:07;102873.41;;;-1.81;60.82
10167;BME280;62970;53.130;8.244;2023-02-26T21:15:37;102874.19;;;-1.82;60.57
10167;BME280;62970;53.130;8.244;2023-02-26T21:18:09;102879.13;;;-1.85;60.73
10167;BME280;62970;53.130;8.244;2023-02-26T21:20:41;102880.72;;;-1.87;60.73
10167;BME280;62970;53.130;8.244;2023-02-26T21:23:11;102884.06;;;-1.88;61.03
10167;BME280;62970;53.130;8.244;2023-02-26T21:25:42;102884.75;;;-1.91;60.78
10167;BME280;62970;53.130;8.244;2023-02-26T21:28:13;102885.38;;;-1.95;61.05
10167;BME280;62970;53.130;8.244;2023-02-26T21:30:42;102896.47;;;-1.94;61.22
10167;BME280;62970;53.130;8.244;2023-02-26T21:33:12;102885.19;;;-1.98;61.00
10167;BME280;62970;53.130;8.244;2023-02-26T21:35:48;102887.56;;;-2.01;61.24
10167;BME280;62970;53.130;8.244;2023-02-26T21:38:20;102889.94;;;-2.04;60.96
10167;BME280;62970;53.130;8.244;2023-02-26T21:40:55;102897.41;;;-2.07;61.17
10167;BME280;62970;53.130;8.244;2023-02-26T21:43:24;102892.09;;;-2.10;61.49
10167;BME280;62970;53.130;8.244;2023-02-26T21:45:54;102893.59;;;-2.14;61.49
10167;BME280;62970;53.130;8.244;2023-02-26T21:48:28;102890.94;;;-2.15;61.27
10167;BME280;62970;53.130;8.244;2023-02-26T21:51:03;102888.28;;;-2.17;61.34
10167;BME280;62970;53.130;8.244;2023-02-26T21:53:36;102890.66;;;-2.20;61.30
10167;BME280;62970;53.130;8.244;2023-02-26T21:56:11;102891.34;;;-2.22;61.26
10167;BME280;62970;53.130;8.244;2023-02-26T21:58:44;102891.16;;;-2.25;61.32
10167;BME280;62970;53.130;8.244;2023-02-26T22:01:24;102893.53;;;-2.28;61.51
10167;BME280;62970;53.130;8.244;2023-02-26T22:03:58;102894.31;;;-2.29;61.45
10167;BME280;62970;53.130;8.244;2023-02-26T22:06:32;102902.59;;;-2.33;61.57
10167;BME280;62970;53.130;8.244;2023-02-26T22:09:06;102899.84;;;-2.37;61.88
10167;BME280;62970;53.130;8.244;2023-02-26T22:11:36;102910.84;;;-2.38;61.66
10167;BME280;62970;53.130;8.244;2023-02-26T22:14:07;102902.09;;;-2.41;61.83
10167;BME280;62970;53.130;8.244;2023-02-26T22:16:37;102909.66;;;-2.43;62.03
10167;BME280;62970;53.130;8.244;2023-02-26T22:19:06;102901.81;;;-2.46;61.70
10167;BME280;62970;53.130;8.244;2023-02-26T22:21:40;102911.84;;;-2.49;61.70
10167;BME280;62970;53.130;8.244;2023-02-26T22:24:10;102904.06;;;-2.50;61.85
10167;BME280;62970;53.130;8.244;2023-02-26T22:26:39;102904.78;;;-2.53;61.83
10167;BME280;62970;53.130;8.244;2023-02-26T22:29:13;102903.78;;;-2.55;62.02
10167;BME280;62970;53.130;8.244;2023-02-26T22:31:43;102900.25;;;-2.57;62.21
10167;BME280;62970;53.130;8.244;2023-02-26T22:34:16;102902.63;;;-2.60;62.23
10167;BME280;62970;53.130;8.244;2023-02-26T22:36:48;102907.53;;;-2.63;62.07
10167;BME280;62970;53.130;8.244;2023-02-26T22:39:18;102906.53;;;-2.65;62.01
10167;BME280;62970;53.130;8.244;2023-02-26T22:41:49;102912.34;;;-2.67;62.32
10167;BME280;62970;53.130;8.244;2023-02-26T22:44:21;102920.59;;;-2.72;62.06
10167;BME280;62970;53.130;8.244;2023-02-26T22:46:52;102917.94;;;-2.73;62.17
10167;BME280;62970;53.130;8.244;2023-02-26T22:49:23;102916.06;;;-2.76;62.28
10167;BME280;62970;53.130;8.244;2023-02-26T22:52:00;102921.88;;;-2.78;62.13
10167;BME280;62970;53.130;8.244;2023-02-26T22:54:33;102926.00;;;-2.80;62.10
10167;BME280;62970;53.130;8.244;2023-02-26T22:57:04;102925.00;;;-2.82;62.51
10167;BME280;62970;53.130;8.244;2023-02-26T22:59:36;102925.69;;;-2.85;62.55
10167;BME280;62970;53.130;8.244;2023-02-26T23:02:05;102932.38;;;-2.87;62.54
10167;BME280;62970;53.130;8.244;2023-02-26T23:04:37;102927.06;;;-2.90;62.20
10167;BME280;62970;53.130;8.244;2023-02-26T23:07:11;102926.09;;;-2.92;62.52
10167;BME280;62970;53.130;8.244;2023-02-26T23:09:45;102922.53;;;-2.94;62.31
10167;BME280;62970;53.130;8.244;2023-02-26T23:12:14;102922.44;;;-2.95;62.79
10167;BME280;62970;53.130;8.244;2023-02-26T23:14:46;102917.13;;;-2.98;62.75
10167;BME280;62970;53.130;8.244;2023-02-26T23:17:17;102928.88;;;-3.01;62.88
10167;BME280;62970;53.130;8.244;2023-02-26T23:19:48;102921.03;;;-3.04;62.65